• Join FlightAware (Why Join?)
  • Login
  • US Flag 
01:48PM EDT


 

Airport Tracker/Info


-or-


 

Live Flight TrackerFlight Track Log ✈ ASQ6151 ✈ 19-May-2013 ✈ KROA - KORD

Flight Track Log - Related Links

Times and Time Zones

All times are in EDT time to prevent confusion due to time zone crossing. See the ASQ6151 flight status page for this flight to view local times or setup timezone preferences in your user account.

Time Position Orientation Groundspeed Altitude Reporting Facility
EDT Latitude Longitude Course Direction KTS MPH feet Rate Location/Type
06:18PM 37.2569 -80.0253 300° West 259 298 7,400  Level Washington Center
06:19PM 37.2958 -80.1033 302° West 269 310 10,000 1,800 Climbing Washington Center
06:20PM 37.3381 -80.1947 300° West 282 325 11,100 1,260 Climbing Washington Center
06:21PM 37.3883 -80.2969 302° West 316 364 12,600 1,560 Climbing Washington Center
06:22PM 37.5185 -80.4771 300° West  Level FlightAware Approximate
06:22PM 37.4386 -80.4022 301° West 341 392 14,200  Level Washington Center
06:23PM 37.5563 -80.5604 300° West  Level FlightAware Approximate
06:23PM 37.5692 -80.5364 321° Northwest 370 426 16,900  Level Indianapolis Center
06:24PM 37.6650 -80.5789 341° North 372 428 18,400 1,380 Climbing Indianapolis Center
06:25PM 37.7619 -80.6200 341° North 374 430 19,800 1,440 Climbing Indianapolis Center
06:26PM 37.8736 -80.6642 343° North 382 440 21,400 1,320 Climbing Indianapolis Center
06:27PM 37.9767 -80.7033 343° North 387 445 22,600 1,140 Climbing Indianapolis Center
06:28PM 38.0825 -80.7447 343° North 396 456 23,800 1,200 Climbing Indianapolis Center
06:30PM 38.1903 -80.7811 345° North 397 457 25,200 1,380 Climbing Indianapolis Center
06:31PM 38.2956 -80.8092 348° North 393 452 26,700 1,620 Climbing Indianapolis Center
06:32PM 38.4189 -80.8428 348° North 381 438 28,600 1,500 Climbing Indianapolis Center
06:33PM 38.5203 -80.8833 343° North 382 440 29,900 1,260 Climbing Indianapolis Center
06:34PM 38.6186 -80.9272 341° North 378 435 31,300 1,260 Climbing Indianapolis Center
06:35PM 38.7081 -80.9919 331° Northwest 371 427 32,600 1,200 Climbing Indianapolis Center
06:36PM 38.7683 -81.0947 307° West 361 415 33,900 660 Climbing Indianapolis Center
06:37PM 38.8483 -81.2178 310° West 379 436 34,000  Climbing Indianapolis Center
06:38PM 38.9072 -81.3397 302° West 408 470 34,000  Level Indianapolis Center
06:39PM 38.9578 -81.4742 296° West 421 484 34,000  Level Indianapolis Center
06:40PM 39.0106 -81.6150 296° West 439 505 34,000  Level Indianapolis Center
06:41PM 39.0714 -81.7497 300° West 440 506 34,000  Level Indianapolis Center
06:42PM 39.1561 -81.8989 306° West 433 498 34,000  Level Indianapolis Center
06:43PM 39.2314 -82.0231 308° West 440 506 34,000 480 Level Indianapolis Center
06:44PM 39.3117 -82.1425 311° West 441 507 35,000 960 Climbing Indianapolis Center
06:45PM 39.3983 -82.2511 316° Northwest 434 499 36,000 480 Climbing Indianapolis Center
06:46PM 39.4850 -82.3614 316° Northwest 432 497 36,000  Level Indianapolis Center
06:47PM 39.5739 -82.5128 307° West 447 514 36,000  Level Indianapolis Center
06:48PM 39.6478 -82.6453 306° West 450 518 36,000  Level Indianapolis Center
06:49PM 39.7192 -82.7778 305° West 446 513 36,000  Level Indianapolis Center
06:50PM 39.7911 -82.9083 306° West 443 510 36,000  Level Indianapolis Center
06:51PM 39.8614 -83.0389 305° West 440 506 36,000  Level Indianapolis Center
06:52PM 39.9314 -83.1694 305° West 439 505 36,000  Level Indianapolis Center
06:53PM 40.0119 -83.3197 305° West 436 502 36,000  Level Indianapolis Center
06:54PM 40.0808 -83.4492 305° West 436 502 36,000  Level Indianapolis Center
06:55PM 40.1486 -83.5783 304° West 433 498 36,000  Level Indianapolis Center
06:56PM 40.2167 -83.7056 305° West 427 491 36,000  Level Indianapolis Center
06:57PM 40.2850 -83.8372 304° West 433 498 36,000  Level Indianapolis Center
06:58PM 40.3556 -83.9700 305° West 439 505 36,000  Level Indianapolis Center
07:00PM 40.4378 -84.1264 305° West 442 509 36,000 -480 Level Indianapolis Center
07:01PM 40.5072 -84.2633 304° West 447 514 35,000 -1,020 Descending Indianapolis Center
07:02PM 40.5775 -84.4003 304° West 448 516 34,000 -480 Descending Indianapolis Center
07:03PM 40.6531 -84.5450 305° West 449 517 34,000  Level Chicago Center
07:04PM 40.7383 -84.7100 304° West 453 521 34,000  Level Chicago Center
07:05PM 40.8081 -84.8486 304° West 453 521 34,000  Level Chicago Center
07:06PM 40.8789 -84.9869 304° West 453 521 34,000  Level Chicago Center
07:07PM 40.9478 -85.1283 303° West 456 525 34,000  Level Chicago Center
07:08PM 41.0042 -85.2808 296° West 458 527 34,000  Level Chicago Center
07:09PM 41.0600 -85.4322 296° West 458 527 34,000  Level Chicago Center
07:10PM 41.1156 -85.5806 296° West 452 520 34,000  Level Chicago Center
07:11PM 41.1708 -85.7322 296° West 452 520 34,000 -540 Level Chicago Center
07:12PM 41.2381 -85.9122 296° West 452 520 32,900 -2,400 Descending Chicago Center
07:13PM 41.2903 -86.0606 295° West 445 512 29,200 -3,120 Descending Chicago Center
07:14PM 41.3286 -86.2194 288° West 448 516 26,500 -2,400 Descending Chicago Center
07:15PM 41.3689 -86.3778 289° West 452 520 24,300 -2,160 Descending Chicago Center
07:16PM 41.4081 -86.5328 289° West 444 511 22,100 -2,160 Descending Chicago Center
07:17PM 41.4419 -86.6706 288° West 394 453 19,900 -2,280 Descending Chicago Center
07:18PM 41.4797 -86.8217 288° West 377 434 17,500 -2,160 Descending Chicago Center
07:19PM 41.5103 -86.9511 288° West 369 425 15,500 -1,920 Descending Chicago Center
07:20PM 41.5414 -87.0750 289° West 357 411 13,600 -1,800 Descending Chicago Center
07:21PM 41.5667 -87.2000 285° West 349 402 12,200 -1,260 Descending Chicago TRACON
07:22PM 41.6314 -87.3250 305° West 346 398 11,000 -960 Descending Chicago Center
07:23PM 41.6933 -87.4250 310° West 350 403 10,100 -540 Descending Chicago Center
07:24PM 41.7525 -87.5200 310° West 340 391 10,000 -180 Descending Chicago Center
07:25PM 41.8069 -87.6083 310° West 313 360 9,800 -1,260 Descending Chicago Center
07:26PM 41.8500 -87.6667 315° West 282 325 7,900 -1,680 Descending Chicago TRACON
07:27PM 41.9167 -87.7000 340° North 265 305 7,000 -480 Descending Chicago TRACON
07:28PM 41.9833 -87.7167 349° North 248 285 7,000 -600 Level Chicago TRACON
07:29PM 42.0500 -87.6833 20° North 251 289 5,800 -1,200 Descending Chicago TRACON
07:30PM 42.1000 -87.6333 37° Northeast 220 253 4,600 -900 Descending Chicago TRACON
07:31PM 42.1500 -87.6500 346° North 218 251 4,000 -480 Descending Chicago TRACON
07:32PM 42.1639 -87.6772 305° West 223 257 4,000 -180 Level Chicago Center
07:33PM 42.1369 -87.7433 241° Southwest 192 221 3,800 -300 Descending Chicago Center
07:33PM 42.1167 -87.7500 194° South 188 216 3,600 -840 Descending Chicago TRACON
07:34PM 42.0833 -87.8000 228° Southwest 190 219 2,700 -900 Descending Chicago TRACON
07:35PM 42.0333 -87.8500 217° Southwest 160 184 1,800 -840 Descending Chicago TRACON
07:36PM 42.0167 -87.8833 236° Southwest 147 169 1,100 -720 Descending Chicago TRACON
07:38PM 41.9817 -87.9067 304° West  Level Estimated